createdAt,value
2022-10-11T00:00:43.747Z,6.80
2022-10-11T00:05:37.113Z,7.82
2022-10-11T00:08:05.795Z,7.32
2022-10-11T00:10:33.873Z,6.93
2022-10-11T00:13:00.841Z,6.57
2022-10-11T00:15:28.698Z,8.50
2022-10-11T00:17:55.927Z,8.70
2022-10-11T00:20:22.773Z,7.55
2022-10-11T00:22:49.555Z,7.63
2022-10-11T00:25:16.933Z,6.80
2022-10-11T00:27:43.565Z,7.22
2022-10-11T00:30:11.328Z,6.60
2022-10-11T00:32:38.591Z,6.55
2022-10-11T00:35:07.121Z,7.10
2022-10-11T00:37:35.241Z,6.30
2022-10-11T00:40:02.984Z,6.38
2022-10-11T00:42:29.554Z,7.70
2022-10-11T00:45:28.151Z,6.57
2022-10-11T00:47:56.995Z,6.32
2022-10-11T00:50:24.670Z,5.43
2022-10-11T00:52:57.537Z,5.10
2022-10-11T00:55:26.866Z,5.72
2022-10-11T00:57:55.485Z,5.88
2022-10-11T01:00:22.151Z,5.53
2022-10-11T01:02:49.220Z,5.93
2022-10-11T01:05:29.307Z,6.30
2022-10-11T01:07:58.965Z,5.63
2022-10-11T01:10:26.285Z,5.65
2022-10-11T01:13:20.643Z,6.45
2022-10-11T01:15:58.498Z,6.63
2022-10-11T01:18:32.845Z,6.20
2022-10-11T01:21:08.515Z,6.47
2022-10-11T01:24:02.699Z,5.82
2022-10-11T01:27:01.313Z,5.55
2022-10-11T01:29:57.709Z,5.68
2022-10-11T01:32:24.227Z,5.05
2022-10-11T01:35:13.197Z,5.85
2022-10-11T01:37:45.572Z,6.18
2022-10-11T01:40:24.134Z,5.97
2022-10-11T01:42:52.226Z,5.28
2022-10-11T01:45:20.708Z,4.95
2022-10-11T01:47:47.601Z,6.47
2022-10-11T01:50:38.908Z,5.80
2022-10-11T01:53:34.664Z,7.25
2022-10-11T01:56:26.358Z,5.35
2022-10-11T01:59:18.404Z,4.95
2022-10-11T02:01:50.806Z,4.75
2022-10-11T02:04:25.000Z,6.70
2022-10-11T02:07:01.062Z,6.80
2022-10-11T02:09:40.647Z,5.95
2022-10-11T02:12:12.179Z,5.07
2022-10-11T02:14:43.775Z,5.55
2022-10-11T02:17:15.221Z,4.90
2022-10-11T02:19:48.233Z,6.15
2022-10-11T02:22:31.896Z,7.13
2022-10-11T02:25:02.703Z,7.38
2022-10-11T02:27:33.208Z,7.60
2022-10-11T02:30:03.400Z,6.13
2022-10-11T02:32:32.262Z,5.28
2022-10-11T02:35:01.858Z,6.00
2022-10-11T02:38:02.292Z,5.75
2022-10-11T02:40:33.278Z,6.65
2022-10-11T02:43:03.806Z,7.82
2022-10-11T02:45:44.714Z,6.10
2022-10-11T02:48:12.537Z,5.85
2022-10-11T02:50:40.340Z,6.38
2022-10-11T02:53:07.574Z,6.15
2022-10-11T02:55:34.165Z,5.88
2022-10-11T02:58:00.935Z,6.18
2022-10-11T03:00:29.362Z,5.80
2022-10-11T03:02:55.901Z,5.25
2022-10-11T03:05:22.553Z,5.57
2022-10-11T03:07:49.091Z,5.43
2022-10-11T03:10:15.806Z,5.38
2022-10-11T03:12:42.410Z,5.32
2022-10-11T03:15:09.421Z,5.97
2022-10-11T03:17:37.311Z,6.75
2022-10-11T03:20:06.026Z,5.05
2022-10-11T03:22:32.573Z,5.70
2022-10-11T03:25:03.669Z,6.22
2022-10-11T03:27:31.079Z,6.18
2022-10-11T03:29:57.815Z,6.68
2022-10-11T03:32:24.583Z,5.43
2022-10-11T03:34:51.145Z,6.15
2022-10-11T03:37:18.231Z,5.82
2022-10-11T03:39:45.660Z,5.93
2022-10-11T03:42:12.762Z,5.35
2022-10-11T03:44:39.463Z,7.28
2022-10-11T03:47:06.051Z,7.60
2022-10-11T03:49:32.651Z,8.05
2022-10-11T03:51:59.962Z,6.88
2022-10-11T03:54:26.608Z,5.60
2022-10-11T03:56:53.269Z,6.45
2022-10-11T03:59:19.904Z,6.25
2022-10-11T04:01:46.526Z,6.25
2022-10-11T04:04:13.211Z,6.55
2022-10-11T04:06:39.909Z,5.88
2022-10-11T04:09:06.514Z,6.38
2022-10-11T04:11:33.153Z,5.60
2022-10-11T04:13:59.813Z,6.10
2022-10-11T04:16:26.458Z,5.90
2022-10-11T04:18:53.181Z,5.38
2022-10-11T04:21:19.762Z,7.90
2022-10-11T04:23:46.329Z,7.45
2022-10-11T04:26:13.073Z,8.65
2022-10-11T04:28:39.675Z,7.00
2022-10-11T04:31:07.914Z,7.25
2022-10-11T04:33:34.526Z,6.60
2022-10-11T04:36:01.694Z,5.80
2022-10-11T04:38:28.715Z,7.07
2022-10-11T04:40:55.408Z,6.53
2022-10-11T04:43:22.026Z,7.60
2022-10-11T04:45:52.243Z,7.25
2022-10-11T04:48:21.337Z,6.50
2022-10-11T04:50:48.080Z,8.80
2022-10-11T04:53:16.634Z,7.10
2022-10-11T04:55:43.239Z,8.95
2022-10-11T04:58:10.031Z,8.50
2022-10-11T05:00:36.617Z,7.38
2022-10-11T05:03:03.247Z,7.18
2022-10-11T05:05:29.835Z,7.18
2022-10-11T05:07:56.441Z,6.57
2022-10-11T05:10:22.980Z,6.03
2022-10-11T05:12:49.517Z,6.10
2022-10-11T05:15:16.172Z,5.82
2022-10-11T05:17:42.786Z,5.95
2022-10-11T05:20:10.019Z,6.05
2022-10-11T05:22:36.674Z,6.35
2022-10-11T05:25:03.466Z,7.38
2022-10-11T05:27:30.138Z,9.55
2022-10-11T05:29:56.751Z,9.20
2022-10-11T05:32:27.600Z,10.73
2022-10-11T05:34:54.534Z,11.40
2022-10-11T05:37:21.296Z,9.80
2022-10-11T05:39:47.855Z,11.40
2022-10-11T05:42:14.458Z,11.05
2022-10-11T05:44:41.043Z,8.85
2022-10-11T05:47:07.791Z,10.50
2022-10-11T05:49:34.413Z,9.30
2022-10-11T05:52:00.995Z,10.07
2022-10-11T05:54:31.472Z,10.88
2022-10-11T05:56:58.026Z,9.80
2022-10-11T05:59:24.605Z,9.45
2022-10-11T06:01:51.218Z,9.82
2022-10-11T06:04:19.003Z,9.30
2022-10-11T06:06:45.757Z,9.77
2022-10-11T06:09:12.802Z,9.27
2022-10-11T06:11:41.374Z,12.82
2022-10-11T06:14:09.488Z,12.15
2022-10-11T06:16:36.023Z,14.48
2022-10-11T06:19:02.878Z,14.02
2022-10-11T06:21:29.770Z,12.95
2022-10-11T06:24:01.154Z,12.38
2022-10-11T06:26:29.348Z,16.80
2022-10-11T06:28:56.460Z,20.27
2022-10-11T06:31:23.397Z,14.07
2022-10-11T06:33:49.955Z,10.73
2022-10-11T06:36:17.121Z,11.85
2022-10-11T06:38:45.396Z,10.80
2022-10-11T06:41:22.358Z,10.30
2022-10-11T06:43:51.710Z,10.63
2022-10-11T06:46:20.010Z,11.20
2022-10-11T06:48:48.250Z,9.57
2022-10-11T06:51:16.942Z,9.73
2022-10-11T06:53:43.750Z,10.77
2022-10-11T06:56:12.317Z,10.27
2022-10-11T06:58:39.880Z,9.07
2022-10-11T07:01:13.006Z,10.70
2022-10-11T07:03:42.649Z,8.40
2022-10-11T07:06:11.579Z,7.53
2022-10-11T07:08:38.672Z,9.13
2022-10-11T07:11:10.547Z,8.25
2022-10-11T07:13:38.275Z,8.15
2022-10-11T07:16:08.130Z,8.40
2022-10-11T07:18:35.278Z,8.30
2022-10-11T07:21:07.852Z,7.50
2022-10-11T07:23:35.239Z,7.43
2022-10-11T07:26:01.971Z,7.78
2022-10-11T07:28:30.450Z,8.25
2022-10-11T07:30:58.033Z,9.50
2022-10-11T07:33:25.073Z,8.77
2022-10-11T07:35:56.503Z,9.75
2022-10-11T07:38:23.062Z,11.40
2022-10-11T07:40:49.807Z,13.30
2022-10-11T07:43:16.548Z,14.52
2022-10-11T07:45:45.436Z,10.85
2022-10-11T07:48:12.092Z,8.70
2022-10-11T07:50:38.699Z,8.05
2022-10-11T07:53:05.264Z,9.38
2022-10-11T07:55:40.420Z,8.68
2022-10-11T07:58:12.012Z,10.07
2022-10-11T08:00:42.162Z,8.80
2022-10-11T08:03:10.232Z,7.82
2022-10-11T08:05:39.023Z,8.10
2022-10-11T08:08:05.970Z,8.25
2022-10-11T08:10:38.106Z,8.50
2022-10-11T08:13:05.324Z,9.23
2022-10-11T08:15:31.910Z,7.38
2022-10-11T08:17:58.473Z,6.97
2022-10-11T08:20:25.188Z,7.88
2022-10-11T08:22:51.758Z,6.57
2022-10-11T08:25:18.349Z,7.43
2022-10-11T08:27:44.932Z,8.18
2022-10-11T08:30:12.100Z,6.40
2022-10-11T08:32:38.877Z,6.55
2022-10-11T08:35:06.220Z,6.50
2022-10-11T08:37:32.860Z,6.55
2022-10-11T08:39:59.437Z,8.30
2022-10-11T08:42:35.943Z,7.85
2022-10-11T08:45:40.639Z,6.82
2022-10-11T08:48:21.165Z,7.55
2022-10-11T08:50:51.047Z,7.75
2022-10-11T08:53:47.731Z,7.57
2022-10-11T08:56:16.427Z,7.70
2022-10-11T08:59:08.909Z,7.30
2022-10-11T09:01:36.037Z,7.53
2022-10-11T09:04:03.625Z,6.07
2022-10-11T09:06:56.471Z,6.40
2022-10-11T09:09:44.918Z,6.15
2022-10-11T09:12:40.952Z,5.45
2022-10-11T09:15:12.779Z,4.65
2022-10-11T09:17:51.219Z,6.15
2022-10-11T09:20:48.813Z,4.47
2022-10-11T09:23:34.081Z,5.75
2022-10-11T09:26:19.420Z,5.90
2022-10-11T09:29:03.700Z,6.90
2022-10-11T09:31:31.430Z,6.35
2022-10-11T09:33:59.973Z,5.82
2022-10-11T09:36:36.170Z,4.57
2022-10-11T09:39:16.805Z,4.85
2022-10-11T09:41:51.986Z,4.55
2022-10-11T09:44:27.982Z,5.38
2022-10-11T09:46:55.876Z,4.97
2022-10-11T09:49:28.294Z,5.90
2022-10-11T09:51:58.603Z,4.45
2022-10-11T09:54:46.492Z,4.53
2022-10-11T09:57:23.867Z,5.10
2022-10-11T10:00:00.169Z,4.93
2022-10-11T10:02:29.010Z,5.43
2022-10-11T10:04:58.645Z,5.13
2022-10-11T10:07:25.920Z,4.63
2022-10-11T10:09:53.175Z,3.63
2022-10-11T10:12:23.500Z,4.82
2022-10-11T10:15:13.799Z,5.07
2022-10-11T10:17:49.324Z,5.20
2022-10-11T10:20:34.493Z,4.60
2022-10-11T10:23:09.730Z,4.97
2022-10-11T10:25:43.073Z,4.70
2022-10-11T10:28:25.520Z,5.57
2022-10-11T10:30:54.368Z,5.30
2022-10-11T10:33:25.939Z,4.75
2022-10-11T10:35:58.072Z,4.43
2022-10-11T10:38:40.672Z,4.20
2022-10-11T10:41:13.754Z,5.07
2022-10-11T10:43:43.024Z,4.97
2022-10-11T10:46:47.331Z,4.40
2022-10-11T10:49:53.246Z,4.43
2022-10-11T10:52:27.131Z,4.35
2022-10-11T10:55:05.515Z,4.68
2022-10-11T10:57:34.981Z,4.10
2022-10-11T11:00:10.342Z,4.03
2022-10-11T11:02:55.303Z,5.00
2022-10-11T11:05:37.057Z,4.15
2022-10-11T11:08:12.175Z,3.42
2022-10-11T11:11:10.634Z,3.95
2022-10-11T11:13:49.923Z,4.07
2022-10-11T11:16:16.464Z,3.60
2022-10-11T11:18:52.051Z,4.03
2022-10-11T11:21:41.703Z,4.18
2022-10-11T11:24:34.876Z,4.28
2022-10-11T11:27:29.507Z,4.20
2022-10-11T11:30:01.885Z,3.13
2022-10-11T11:32:45.578Z,3.83
2022-10-11T11:36:05.563Z,4.22
2022-10-11T11:38:53.644Z,3.92
2022-10-11T11:41:28.630Z,3.83
2022-10-11T11:44:30.009Z,3.95
2022-10-11T11:47:02.583Z,3.55
2022-10-11T11:49:37.367Z,4.90
2022-10-11T11:52:06.693Z,4.20
2022-10-11T11:55:05.933Z,4.20
2022-10-11T11:57:53.828Z,3.58
2022-10-11T12:00:23.518Z,4.15
2022-10-11T12:03:11.692Z,3.53
2022-10-11T12:05:38.425Z,4.07
2022-10-11T12:08:08.437Z,3.83
2022-10-11T12:10:50.100Z,4.20
2022-10-11T12:13:35.274Z,3.70
2022-10-11T12:16:13.718Z,4.13
2022-10-11T12:19:02.374Z,3.85
2022-10-11T12:21:35.511Z,5.13
2022-10-11T12:24:11.337Z,4.50
2022-10-11T12:26:46.846Z,6.53
2022-10-11T12:29:51.091Z,7.50
2022-10-11T12:32:26.911Z,5.05
2022-10-11T12:35:31.466Z,4.63
2022-10-11T12:38:14.797Z,4.40
2022-10-11T12:40:42.962Z,4.85
2022-10-11T12:43:22.510Z,4.97
2022-10-11T12:45:49.468Z,4.70
2022-10-11T12:48:19.007Z,4.60
2022-10-11T12:50:48.463Z,5.20
2022-10-11T12:53:21.134Z,4.38
2022-10-11T12:56:02.556Z,4.82
2022-10-11T12:58:38.385Z,4.70
2022-10-11T13:01:10.272Z,4.60
2022-10-11T13:03:40.778Z,4.78
2022-10-11T13:06:33.914Z,4.43
2022-10-11T13:09:09.465Z,6.13
2022-10-11T13:11:40.579Z,5.47
2022-10-11T13:14:16.847Z,4.97
2022-10-11T13:17:11.208Z,4.13
2022-10-11T13:22:20.730Z,4.32
2022-10-11T13:24:47.379Z,5.18
2022-10-11T13:27:20.789Z,4.97
2022-10-11T13:29:49.009Z,4.57
2022-10-11T13:32:26.104Z,3.60
2022-10-11T13:37:30.055Z,4.25
2022-10-11T13:39:57.438Z,4.80
2022-10-11T13:42:29.746Z,3.90
2022-10-11T13:44:58.132Z,4.03
2022-10-11T13:47:30.676Z,5.05
2022-10-11T13:50:10.835Z,4.15
2022-10-11T13:52:59.783Z,4.35
2022-10-11T13:55:28.533Z,3.80
2022-10-11T13:57:57.694Z,4.30
2022-10-11T14:00:26.994Z,3.97
2022-10-11T14:03:15.443Z,3.90
2022-10-11T14:05:54.430Z,4.00
2022-10-11T14:08:54.038Z,4.05
2022-10-11T14:11:39.186Z,3.70
2022-10-11T14:14:28.846Z,3.67
2022-10-11T14:17:10.587Z,3.80
2022-10-11T14:19:39.712Z,3.97
2022-10-11T14:22:11.912Z,3.80
2022-10-11T14:24:38.637Z,3.88
2022-10-11T14:27:06.178Z,3.88
2022-10-11T14:29:35.660Z,3.60
2022-10-11T14:32:14.078Z,3.55
2022-10-11T14:34:42.613Z,4.43
2022-10-11T14:37:12.429Z,3.30
2022-10-11T14:39:39.052Z,3.30
2022-10-11T14:42:06.008Z,3.45
2022-10-11T14:44:32.577Z,3.83
2022-10-11T14:46:59.516Z,4.40
2022-10-11T14:49:29.008Z,3.97
2022-10-11T14:51:57.717Z,3.20
2022-10-11T14:54:26.046Z,3.35
2022-10-11T14:56:54.741Z,3.72
2022-10-11T14:59:23.978Z,4.22
2022-10-11T15:01:53.483Z,3.90
2022-10-11T15:04:25.362Z,4.28
2022-10-11T15:06:53.922Z,4.70
2022-10-11T15:09:21.290Z,4.60
2022-10-11T15:11:49.383Z,5.63
2022-10-11T15:14:16.100Z,4.88
2022-10-11T15:16:43.093Z,4.72
2022-10-11T15:19:21.700Z,3.83
2022-10-11T15:21:48.718Z,4.13
2022-10-11T15:24:15.698Z,3.88
2022-10-11T15:26:42.459Z,5.78
2022-10-11T15:29:14.099Z,5.15
2022-10-11T15:31:40.755Z,3.95
2022-10-11T15:34:07.353Z,5.13
2022-10-11T15:36:34.085Z,6.07
2022-10-11T15:39:03.056Z,7.40
2022-10-11T15:41:29.662Z,5.40
2022-10-11T15:43:56.270Z,4.50
2022-10-11T15:46:23.353Z,5.78
2022-10-11T15:48:51.408Z,4.78
2022-10-11T15:51:18.585Z,4.75
2022-10-11T15:53:45.298Z,5.35
2022-10-11T15:56:17.182Z,4.90
2022-10-11T15:58:44.441Z,6.05
2022-10-11T16:01:19.348Z,5.60
2022-10-11T16:03:47.939Z,6.38
2022-10-11T16:06:15.159Z,5.35
2022-10-11T16:08:41.723Z,5.05
2022-10-11T16:11:09.831Z,5.35
2022-10-11T16:13:36.693Z,4.88
2022-10-11T16:16:06.249Z,4.85
2022-10-11T16:18:35.686Z,5.30
2022-10-11T16:21:10.193Z,6.35
2022-10-11T16:23:37.530Z,5.78
2022-10-11T16:26:07.999Z,5.78
2022-10-11T16:28:35.611Z,6.65
2022-10-11T16:31:18.071Z,9.00
2022-10-11T16:33:47.835Z,7.80
2022-10-11T16:36:32.484Z,7.60
2022-10-11T16:39:00.355Z,6.25
2022-10-11T16:41:26.938Z,6.65
2022-10-11T16:43:54.738Z,6.70
2022-10-11T16:46:22.048Z,6.50
2022-10-11T16:48:48.858Z,6.28
2022-10-11T16:51:15.527Z,6.47
2022-10-11T16:53:42.180Z,7.00
2022-10-11T16:56:11.312Z,7.25
2022-10-11T16:58:37.956Z,7.18
2022-10-11T17:01:09.629Z,6.60
2022-10-11T17:03:36.844Z,7.43
2022-10-11T17:06:04.787Z,7.70
2022-10-11T17:08:31.708Z,8.20
2022-10-11T17:10:58.292Z,10.05
2022-10-11T17:13:25.100Z,10.05
2022-10-11T17:15:51.676Z,9.98
2022-10-11T17:18:18.587Z,10.20
2022-10-11T17:20:45.311Z,7.93
2022-10-11T17:23:12.120Z,8.25
2022-10-11T17:25:46.467Z,7.82
2022-10-11T17:28:13.214Z,9.68
2022-10-11T17:30:42.797Z,7.43
2022-10-11T17:33:10.316Z,10.02
2022-10-11T17:35:36.899Z,8.00
2022-10-11T17:38:06.359Z,9.45
2022-10-11T17:40:33.259Z,8.07
2022-10-11T17:42:59.889Z,7.22
2022-10-11T17:45:26.509Z,7.20
2022-10-11T17:47:53.864Z,6.72
2022-10-11T17:50:20.506Z,7.03
2022-10-11T17:52:47.224Z,7.63
2022-10-11T17:55:13.763Z,8.18
2022-10-11T17:57:40.510Z,7.57
2022-10-11T18:00:07.714Z,7.13
2022-10-11T18:02:34.300Z,7.50
2022-10-11T18:05:00.928Z,8.45
2022-10-11T18:07:27.500Z,7.45
2022-10-11T18:09:54.214Z,6.63
2022-10-11T18:12:21.097Z,5.93
2022-10-11T18:14:47.814Z,5.80
2022-10-11T18:17:14.478Z,7.55
2022-10-11T18:19:41.024Z,9.10
2022-10-11T18:22:07.639Z,8.00
2022-10-11T18:24:34.624Z,8.65
2022-10-11T18:27:01.461Z,8.85
2022-10-11T18:29:28.637Z,7.65
2022-10-11T18:31:55.207Z,7.70
2022-10-11T18:34:21.787Z,8.32
2022-10-11T18:36:48.367Z,8.70
2022-10-11T18:39:15.385Z,10.90
2022-10-11T18:41:45.545Z,13.43
2022-10-11T18:44:14.377Z,12.73
2022-10-11T18:46:41.315Z,14.20
2022-10-11T18:49:08.897Z,11.55
2022-10-11T18:51:40.938Z,12.18
2022-10-11T18:54:10.052Z,10.68
2022-10-11T18:56:37.119Z,12.77
2022-10-11T18:59:05.587Z,11.27
2022-10-11T19:01:40.973Z,11.02
2022-10-11T19:04:10.162Z,9.77
2022-10-11T19:06:39.567Z,10.00
2022-10-11T19:09:10.749Z,11.02
2022-10-11T19:11:38.256Z,9.93
2022-10-11T19:14:07.084Z,9.98
2022-10-11T19:16:40.161Z,9.65
2022-10-11T19:19:07.656Z,9.98
2022-10-11T19:21:34.233Z,10.98
2022-10-11T19:24:01.136Z,10.02
2022-10-11T19:26:33.704Z,10.75
2022-10-11T19:29:01.266Z,9.43
2022-10-11T19:31:28.583Z,9.95
2022-10-11T19:33:56.843Z,9.50
2022-10-11T19:36:24.055Z,10.75
2022-10-11T19:38:51.066Z,9.80
2022-10-11T19:41:19.701Z,10.38
2022-10-11T19:43:46.788Z,9.80
2022-10-11T19:46:20.248Z,10.02
2022-10-11T19:48:54.569Z,10.63
2022-10-11T19:51:24.136Z,9.15
2022-10-11T19:54:02.605Z,8.18
2022-10-11T19:56:31.561Z,8.10
2022-10-11T19:58:58.238Z,8.02
2022-10-11T20:01:27.557Z,9.45
2022-10-11T20:03:56.675Z,8.20
2022-10-11T20:06:25.711Z,10.23
2022-10-11T20:09:04.901Z,9.27
2022-10-11T20:11:39.137Z,8.90
2022-10-11T20:14:06.005Z,11.23
2022-10-11T20:16:32.575Z,17.63
2022-10-11T20:18:59.369Z,16.00
2022-10-11T20:21:28.432Z,21.02
2022-10-11T20:23:59.564Z,20.35
2022-10-11T20:26:27.888Z,16.40
2022-10-11T20:28:56.180Z,14.43
2022-10-11T20:31:25.917Z,12.10
2022-10-11T20:33:55.978Z,14.15
2022-10-11T20:36:23.529Z,13.15
2022-10-11T20:38:50.634Z,13.70
2022-10-11T20:41:29.166Z,11.68
2022-10-11T20:43:57.917Z,12.57
2022-10-11T20:46:26.913Z,12.57
2022-10-11T20:49:01.764Z,15.35
2022-10-11T20:51:30.022Z,15.02
2022-10-11T20:53:56.755Z,15.35
2022-10-11T20:56:23.836Z,12.13
2022-10-11T20:58:52.635Z,10.52
2022-10-11T21:01:26.115Z,10.35
2022-10-11T21:03:53.307Z,10.48
2022-10-11T21:06:20.027Z,13.05
2022-10-11T21:08:46.563Z,13.80
2022-10-11T21:11:13.174Z,13.68
2022-10-11T21:13:40.023Z,15.80
2022-10-11T21:16:10.863Z,15.10
2022-10-11T21:18:38.042Z,26.15
2022-10-11T21:21:10.542Z,20.02
2022-10-11T21:23:37.255Z,21.17
2022-10-11T21:26:06.400Z,14.23
2022-10-11T21:28:33.305Z,13.32
2022-10-11T21:31:12.442Z,26.00
2022-10-11T21:33:40.725Z,25.38
2022-10-11T21:36:10.467Z,28.95
2022-10-11T21:38:37.570Z,25.58
2022-10-11T21:41:05.600Z,14.85
2022-10-11T21:43:33.649Z,12.55
2022-10-11T21:46:00.231Z,27.50
2022-10-11T21:48:29.376Z,28.98
2022-10-11T21:50:55.950Z,25.73
2022-10-11T21:53:22.521Z,16.55
2022-10-11T21:55:56.930Z,13.73
2022-10-11T21:58:23.494Z,12.48
2022-10-11T22:00:50.082Z,12.82
2022-10-11T22:03:16.674Z,14.57
2022-10-11T22:05:44.765Z,10.68
2022-10-11T22:08:12.673Z,8.65
2022-10-11T22:10:42.534Z,8.52
2022-10-11T22:13:09.168Z,7.97
2022-10-11T22:15:36.842Z,8.30
2022-10-11T22:18:03.703Z,8.32
2022-10-11T22:20:32.578Z,7.82
2022-10-11T22:22:59.312Z,9.05
2022-10-11T22:25:25.939Z,8.80
2022-10-11T22:27:52.571Z,10.45
2022-10-11T22:30:19.175Z,10.30
2022-10-11T22:32:45.910Z,8.98
2022-10-11T22:35:12.475Z,9.18
2022-10-11T22:37:39.013Z,8.23
2022-10-11T22:40:06.149Z,7.47
2022-10-11T22:42:32.712Z,9.45
2022-10-11T22:44:59.898Z,9.45
2022-10-11T22:47:26.732Z,9.07
2022-10-11T22:49:53.358Z,8.52
2022-10-11T22:52:19.929Z,7.60
2022-10-11T22:54:46.675Z,8.98
2022-10-11T22:57:13.265Z,10.13
2022-10-11T22:59:39.822Z,9.35
2022-10-11T23:02:06.434Z,10.43
2022-10-11T23:04:32.996Z,8.20
2022-10-11T23:07:04.647Z,8.55
2022-10-11T23:09:31.680Z,8.20
2022-10-11T23:11:59.387Z,7.70
2022-10-11T23:14:26.009Z,7.40
2022-10-11T23:16:53.276Z,8.90
2022-10-11T23:19:19.866Z,9.18
2022-10-11T23:21:46.738Z,9.45
2022-10-11T23:24:13.421Z,8.93
2022-10-11T23:26:39.974Z,9.23
2022-10-11T23:29:06.540Z,8.38
2022-10-11T23:31:33.081Z,9.55
2022-10-11T23:33:59.688Z,8.20
2022-10-11T23:36:26.449Z,8.35
2022-10-11T23:38:57.766Z,8.15
2022-10-11T23:43:52.886Z,7.10
2022-10-11T23:46:19.500Z,8.38
2022-10-11T23:48:46.157Z,8.80
2022-10-11T23:51:13.202Z,8.43
2022-10-11T23:53:39.828Z,7.97
2022-10-11T23:56:06.798Z,9.27
